Photometre #525[NE_1.6] FORTH_RSLab AOT

File : 20220824_525.hum

24/08/2022,04:29:45,TEMP=39.6,BA=5.28,STAT.h
24/08/2022,04:29:51,TEMP=39.6,BA=5.28,STAT.h
24/08/2022,04:32:54,TEMP=39.6,BA=5.28,STAT.h
24/08/2022,04:32:55,TEMP=39.6,BA=5.28,STAT.h
24/08/2022,04:35:01,TEMP=39.6,BA=5.28,STAT.h
24/08/2022,04:36:35,TEMP=39.6,BA=5.28,STAT.h
24/08/2022,04:36:41,TEMP=39.6,BA=5.28,STAT.h
24/08/2022,04:40:56,TEMP=39.6,BA=5.28,STAT.h
24/08/2022,04:40:57,TEMP=39.6,BA=5.28,STAT.h
24/08/2022,04:45:01,TEMP=39.6,BA=5.28,STAT.h
24/08/2022,04:46:10,TEMP=39.6,BA=5.28,STAT.h
24/08/2022,04:46:16,TEMP=39.6,BA=5.28,STAT.h
24/08/2022,04:52:35,TEMP=39.6,BA=5.28,STAT.h
24/08/2022,04:52:41,TEMP=39.6,BA=5.28,STAT.h
24/08/2022,05:01:01,TEMP=24.1,BA=5.32,STAT.B=38.0,ExtBa=12.74
24/08/2022,05:11:04,TEMP=25.4,BA=5.28,STAT.A=37.5,ExtBa=12.77
24/08/2022,05:13:08,TEMP=25.9,BA=5.28,STAT.A=37.0,ExtBa=12.76
24/08/2022,05:15:15,TEMP=26.1,BA=5.28,STAT.A=37.0,ExtBa=12.76
24/08/2022,05:19:19,TEMP=26.3,BA=5.28,STAT.A=37.5,ExtBa=12.80
24/08/2022,05:25:21,TEMP=26.6,BA=5.28,STAT.D=38.0,ExtBa=12.81
24/08/2022,05:27:16,TEMP=27.1,BA=5.28,STAT.C=37.5,ExtBa=12.75
24/08/2022,05:42:13,TEMP=28.5,BA=5.28,STAT.A=37.5,ExtBa=12.77
24/08/2022,05:44:18,TEMP=28.9,BA=5.28,STAT.A=37.0,ExtBa=12.75
24/08/2022,05:50:21,TEMP=29.1,BA=5.36,STAT.D=37.5,ExtBa=12.80
24/08/2022,05:52:16,TEMP=29.5,BA=5.36,STAT.A=37.5,ExtBa=12.75
24/08/2022,05:55:21,TEMP=29.6,BA=5.36,STAT.D=37.5,ExtBa=12.76
24/08/2022,06:00:21,TEMP=29.6,BA=5.36,STAT.D=38.0,ExtBa=12.78
24/08/2022,06:02:38,TEMP=29.9,BA=5.36,STAT.A=37.5,ExtBa=12.75
24/08/2022,06:05:21,TEMP=30.1,BA=5.36,STAT.D=37.5,ExtBa=12.75
24/08/2022,06:10:22,TEMP=30.3,BA=5.36,STAT.D=38.0,ExtBa=12.78
24/08/2022,06:15:22,TEMP=30.7,BA=5.36,STAT.D=38.0,ExtBa=12.77
24/08/2022,06:17:17,TEMP=31.1,BA=5.36,STAT.B=37.5,ExtBa=12.73
24/08/2022,06:30:22,TEMP=31.9,BA=5.40,STAT.D=38.0,ExtBa=12.79
24/08/2022,06:40:20,TEMP=32.5,BA=5.40,STAT.D=37.5,ExtBa=12.80
24/08/2022,06:47:18,TEMP=33.3,BA=5.40,STAT.B=35.0,ExtBa=12.77
24/08/2022,06:50:22,TEMP=31.9,BA=5.40,STAT.D=37.5,ExtBa=12.77
24/08/2022,06:52:15,TEMP=31.5,BA=5.40,STAT.D=38.0,ExtBa=12.74
24/08/2022,07:00:01,TEMP=31.6,BA=5.40,STAT.h
24/08/2022,07:05:01,TEMP=31.6,BA=5.40,STAT.h
24/08/2022,07:06:36,TEMP=31.6,BA=5.40,STAT.h
24/08/2022,07:06:37,TEMP=31.6,BA=5.40,STAT.h
24/08/2022,07:10:01,TEMP=31.6,BA=5.40,STAT.h
24/08/2022,07:15:01,TEMP=31.6,BA=5.40,STAT.h
24/08/2022,07:20:01,TEMP=31.6,BA=5.40,STAT.h
24/08/2022,07:21:36,TEMP=31.6,BA=5.44,STAT.h
24/08/2022,07:21:37,TEMP=31.6,BA=5.44,STAT.h
24/08/2022,07:25:01,TEMP=31.6,BA=5.44,STAT.h
24/08/2022,07:30:01,TEMP=31.6,BA=5.44,STAT.h
24/08/2022,07:35:22,TEMP=23.7,BA=5.44,STAT.D=39.5,ExtBa=13.55
24/08/2022,07:37:16,TEMP=24.4,BA=5.44,STAT.D=38.5,ExtBa=13.52
24/08/2022,07:40:22,TEMP=24.8,BA=5.44,STAT.D=38.0,ExtBa=13.59
24/08/2022,07:45:22,TEMP=25.5,BA=5.44,STAT.D=38.0,ExtBa=13.60
24/08/2022,07:50:22,TEMP=26.3,BA=5.48,STAT.D=38.0,ExtBa=13.61
24/08/2022,07:52:16,TEMP=26.8,BA=5.48,STAT.D=37.0,ExtBa=13.60
24/08/2022,07:55:22,TEMP=27.1,BA=5.48,STAT.D=37.5,ExtBa=13.63
24/08/2022,08:00:22,TEMP=27.5,BA=5.48,STAT.D=37.5,ExtBa=13.68
24/08/2022,08:05:22,TEMP=28.1,BA=5.48,STAT.D=37.5,ExtBa=13.72
24/08/2022,08:07:17,TEMP=28.7,BA=5.48,STAT.D=37.0,ExtBa=13.78
24/08/2022,08:10:23,TEMP=28.9,BA=5.48,STAT.D=37.0,ExtBa=13.53
24/08/2022,08:15:23,TEMP=28.8,BA=5.48,STAT.D=38.0,ExtBa=13.38
24/08/2022,08:20:23,TEMP=28.5,BA=5.48,STAT.D=38.0,ExtBa=13.32
24/08/2022,08:22:17,TEMP=28.7,BA=5.48,STAT.F,ExtBa=13.25
24/08/2022,08:25:23,TEMP=28.5,BA=5.48,STAT.D=38.0,ExtBa=13.30
24/08/2022,08:30:23,TEMP=28.2,BA=5.48,STAT.D=38.5,ExtBa=13.32
24/08/2022,08:35:23,TEMP=28.1,BA=5.48,STAT.D=38.5,ExtBa=13.30
24/08/2022,08:37:20,TEMP=28.4,BA=5.48,STAT.D=38.0,ExtBa=13.23
24/08/2022,08:40:23,TEMP=28.3,BA=5.48,STAT.D=38.0,ExtBa=13.28
24/08/2022,08:45:23,TEMP=28.3,BA=5.48,STAT.D=38.5,ExtBa=13.45
24/08/2022,08:50:23,TEMP=28.5,BA=5.48,STAT.D=38.0,ExtBa=13.55
24/08/2022,08:52:19,TEMP=28.9,BA=5.48,STAT.D=37.5,ExtBa=13.62
24/08/2022,08:55:21,TEMP=29.1,BA=5.48,STAT.D=37.5,ExtBa=13.61
24/08/2022,08:56:41,TEMP=29.1,BA=5.48,STAT.h
24/08/2022,09:06:58,TEMP=29.1,BA=5.48,STAT.D=38.5,ExtBa=13.84
24/08/2022,09:10:23,TEMP=29.4,BA=5.52,STAT.D=38.0,ExtBa=14.15
24/08/2022,09:15:23,TEMP=30.0,BA=5.52,STAT.D=38.0,ExtBa=14.07
24/08/2022,09:20:23,TEMP=30.9,BA=5.52,STAT.D=37.5,ExtBa=14.00
24/08/2022,09:22:21,TEMP=31.5,BA=5.52,STAT.F,ExtBa=13.42
24/08/2022,09:30:23,TEMP=31.4,BA=5.48,STAT.D=38.0,ExtBa=13.12
24/08/2022,09:35:23,TEMP=30.9,BA=5.48,STAT.D=38.5,ExtBa=13.13
24/08/2022,09:37:16,TEMP=31.0,BA=5.48,STAT.D=38.0,ExtBa=13.06
24/08/2022,09:40:23,TEMP=30.6,BA=5.44,STAT.D=38.5,ExtBa=13.05
24/08/2022,09:45:23,TEMP=30.1,BA=5.44,STAT.D=38.5,ExtBa=13.04
24/08/2022,09:45:50,TEMP=30.1,BA=5.44,STAT.h
24/08/2022,09:51:40,TEMP=30.1,BA=5.48,STAT.h
24/08/2022,09:51:46,TEMP=30.1,BA=5.48,STAT.h
24/08/2022,10:05:05,TEMP=30.1,BA=5.48,STAT.h
24/08/2022,10:06:36,TEMP=30.1,BA=5.48,STAT.h
24/08/2022,10:06:37,TEMP=30.1,BA=5.48,STAT.h
24/08/2022,10:10:23,TEMP=28.1,BA=5.48,STAT.D=39.0,ExtBa=13.41
24/08/2022,10:10:42,TEMP=28.1,BA=5.48,STAT.h
24/08/2022,10:20:23,TEMP=28.7,BA=5.52,STAT.D=38.5,ExtBa=13.52
24/08/2022,10:22:21,TEMP=29.3,BA=5.52,STAT.F,ExtBa=13.38
24/08/2022,10:25:23,TEMP=29.7,BA=5.52,STAT.D=37.5,ExtBa=14.93
24/08/2022,10:30:23,TEMP=30.2,BA=5.52,STAT.D=37.5,ExtBa=14.20
24/08/2022,10:35:23,TEMP=30.9,BA=5.52,STAT.D=37.5,ExtBa=13.55
24/08/2022,10:37:17,TEMP=31.3,BA=5.52,STAT.D=37.0,ExtBa=13.47
24/08/2022,10:40:23,TEMP=31.5,BA=5.48,STAT.D=37.5,ExtBa=13.73
24/08/2022,10:45:23,TEMP=31.7,BA=5.48,STAT.D=37.5,ExtBa=13.60
24/08/2022,10:50:23,TEMP=32.4,BA=5.52,STAT.D=37.5,ExtBa=14.25
24/08/2022,10:52:16,TEMP=33.0,BA=5.52,STAT.D=37.0,ExtBa=14.01
24/08/2022,10:55:23,TEMP=33.1,BA=5.52,STAT.D=37.0,ExtBa=13.86
24/08/2022,11:00:23,TEMP=32.9,BA=5.52,STAT.D=38.0,ExtBa=14.39
24/08/2022,11:05:23,TEMP=32.9,BA=5.52,STAT.D=38.0,ExtBa=13.94
24/08/2022,11:07:16,TEMP=33.3,BA=5.52,STAT.D=37.5,ExtBa=13.71
24/08/2022,11:10:23,TEMP=33.0,BA=5.48,STAT.D=38.0,ExtBa=13.96
24/08/2022,11:15:23,TEMP=32.4,BA=5.48,STAT.D=38.5,ExtBa=13.74
24/08/2022,11:20:23,TEMP=31.8,BA=5.48,STAT.D=38.5,ExtBa=13.59
24/08/2022,11:22:18,TEMP=31.9,BA=5.48,STAT.F,ExtBa=13.43
24/08/2022,11:25:23,TEMP=31.3,BA=5.48,STAT.D=38.5,ExtBa=13.35
24/08/2022,11:30:23,TEMP=30.5,BA=5.44,STAT.D=39.0,ExtBa=13.25
24/08/2022,11:35:23,TEMP=29.8,BA=5.44,STAT.D=39.0,ExtBa=13.12
24/08/2022,11:37:16,TEMP=29.9,BA=5.44,STAT.D=38.5,ExtBa=12.97
24/08/2022,11:40:23,TEMP=29.4,BA=5.44,STAT.D=39.0,ExtBa=12.90
24/08/2022,11:45:23,TEMP=28.9,BA=5.44,STAT.D=39.0,ExtBa=12.90
24/08/2022,11:50:23,TEMP=28.7,BA=5.44,STAT.D=39.0,ExtBa=12.93
24/08/2022,11:52:17,TEMP=28.8,BA=5.44,STAT.D=38.5,ExtBa=12.89
24/08/2022,11:55:23,TEMP=28.6,BA=5.44,STAT.D=38.5,ExtBa=12.96
24/08/2022,12:00:23,TEMP=28.3,BA=5.44,STAT.D=39.0,ExtBa=13.14
24/08/2022,12:05:23,TEMP=28.5,BA=5.44,STAT.D=38.5,ExtBa=13.43
24/08/2022,12:07:17,TEMP=28.8,BA=5.44,STAT.D=38.0,ExtBa=13.04
24/08/2022,12:10:23,TEMP=28.9,BA=5.40,STAT.D=38.0,ExtBa=12.97
24/08/2022,12:15:23,TEMP=28.7,BA=5.40,STAT.D=38.5,ExtBa=12.91
24/08/2022,12:20:23,TEMP=28.3,BA=5.44,STAT.D=38.5,ExtBa=12.85
24/08/2022,12:22:18,TEMP=28.4,BA=5.44,STAT.F,ExtBa=12.79
24/08/2022,12:25:01,TEMP=28.4,BA=5.44,STAT.h
24/08/2022,12:30:01,TEMP=28.4,BA=5.44,STAT.h
24/08/2022,12:35:01,TEMP=28.4,BA=5.40,STAT.h
24/08/2022,12:36:36,TEMP=28.4,BA=5.40,STAT.h
24/08/2022,12:36:37,TEMP=28.4,BA=5.40,STAT.h
24/08/2022,12:40:01,TEMP=28.4,BA=5.40,STAT.h
24/08/2022,12:45:01,TEMP=28.4,BA=5.40,STAT.h
24/08/2022,12:50:01,TEMP=28.4,BA=5.40,STAT.h
24/08/2022,12:51:36,TEMP=28.4,BA=5.44,STAT.h
24/08/2022,12:51:37,TEMP=28.4,BA=5.44,STAT.h
24/08/2022,12:55:01,TEMP=28.4,BA=5.44,STAT.h
24/08/2022,13:00:22,TEMP=25.6,BA=5.44,STAT.D=38.5,ExtBa=13.02
24/08/2022,13:05:22,TEMP=26.0,BA=5.44,STAT.D=38.5,ExtBa=12.98
24/08/2022,13:07:15,TEMP=26.3,BA=5.44,STAT.D=38.0,ExtBa=12.89
24/08/2022,13:10:22,TEMP=26.4,BA=5.44,STAT.D=38.0,ExtBa=12.92
24/08/2022,13:15:22,TEMP=26.3,BA=5.44,STAT.D=38.0,ExtBa=12.93
24/08/2022,13:20:22,TEMP=26.3,BA=5.44,STAT.D=38.5,ExtBa=12.90
24/08/2022,13:22:19,TEMP=26.7,BA=5.44,STAT.F,ExtBa=12.85
24/08/2022,13:37:12,TEMP=28.3,BA=5.36,STAT.D=37.5,ExtBa=12.96
24/08/2022,13:40:22,TEMP=28.4,BA=5.40,STAT.D=37.5,ExtBa=13.08
24/08/2022,13:45:22,TEMP=28.1,BA=5.40,STAT.D=38.0,ExtBa=13.12
24/08/2022,13:50:22,TEMP=28.0,BA=5.44,STAT.D=38.5,ExtBa=13.65
24/08/2022,13:52:16,TEMP=28.4,BA=5.44,STAT.D=37.5,ExtBa=13.47
24/08/2022,13:55:22,TEMP=28.6,BA=5.44,STAT.D=37.5,ExtBa=13.29
24/08/2022,13:57:17,TEMP=28.8,BA=5.44,STAT.B=37.5,ExtBa=13.09
24/08/2022,14:00:22,TEMP=28.5,BA=5.40,STAT.D=37.5,ExtBa=12.94
24/08/2022,14:05:22,TEMP=28.1,BA=5.40,STAT.D=38.5,ExtBa=12.94
24/08/2022,14:10:22,TEMP=28.1,BA=5.44,STAT.D=38.5,ExtBa=13.12
24/08/2022,14:15:22,TEMP=28.1,BA=5.44,STAT.D=38.5,ExtBa=13.11
24/08/2022,14:20:22,TEMP=28.2,BA=5.44,STAT.D=38.5,ExtBa=13.51
24/08/2022,14:25:22,TEMP=28.6,BA=5.44,STAT.D=38.0,ExtBa=13.52
24/08/2022,14:27:17,TEMP=29.0,BA=5.44,STAT.B=37.5,ExtBa=13.46
24/08/2022,14:40:22,TEMP=29.4,BA=5.44,STAT.D=38.0,ExtBa=13.35
24/08/2022,14:42:16,TEMP=29.8,BA=5.44,STAT.A=37.5,ExtBa=13.05
24/08/2022,14:45:21,TEMP=29.6,BA=5.44,STAT.D=37.5,ExtBa=13.21
24/08/2022,14:50:21,TEMP=29.4,BA=5.44,STAT.D=38.0,ExtBa=13.33
24/08/2022,14:53:09,TEMP=29.7,BA=5.44,STAT.A=38.0,ExtBa=13.32
24/08/2022,14:55:21,TEMP=30.0,BA=5.44,STAT.D=37.5,ExtBa=13.28
24/08/2022,15:00:21,TEMP=29.8,BA=5.44,STAT.D=38.0,ExtBa=13.34
24/08/2022,15:02:59,TEMP=30.0,BA=5.44,STAT.A=37.5,ExtBa=13.30
24/08/2022,15:05:21,TEMP=30.1,BA=5.44,STAT.D=37.5,ExtBa=13.25
24/08/2022,15:10:21,TEMP=29.9,BA=5.44,STAT.D=38.0,ExtBa=13.32
24/08/2022,15:12:15,TEMP=30.2,BA=5.44,STAT.A=37.5,ExtBa=13.20
24/08/2022,15:15:21,TEMP=30.0,BA=5.44,STAT.D=38.0,ExtBa=13.20
24/08/2022,15:18:26,TEMP=29.7,BA=5.44,STAT.C=38.0,ExtBa=13.20
24/08/2022,15:33:08,TEMP=28.9,BA=5.36,STAT.A=38.5,ExtBa=12.91
24/08/2022,15:35:15,TEMP=29.0,BA=5.36,STAT.A=38.0,ExtBa=12.89
24/08/2022,15:37:17,TEMP=29.1,BA=5.36,STAT.A=38.0,ExtBa=12.89
24/08/2022,15:39:22,TEMP=29.1,BA=5.36,STAT.A=38.0,ExtBa=12.88
24/08/2022,15:42:54,TEMP=28.8,BA=5.36,STAT.B=38.0,ExtBa=12.90
24/08/2022,15:52:43,TEMP=28.4,BA=5.32,STAT.A=38.5,ExtBa=12.82
24/08/2022,15:55:21,TEMP=28.4,BA=5.32,STAT.D=38.0,ExtBa=12.83
24/08/2022,15:57:23,TEMP=28.6,BA=5.32,STAT.A=38.0,ExtBa=12.82
24/08/2022,16:00:21,TEMP=28.4,BA=5.32,STAT.D=38.0,ExtBa=12.83
24/08/2022,16:02:37,TEMP=28.3,BA=5.32,STAT.A=38.0,ExtBa=12.82
24/08/2022,16:05:21,TEMP=28.1,BA=5.32,STAT.D=38.0,ExtBa=12.82
24/08/2022,16:07:16,TEMP=28.1,BA=5.32,STAT.A=38.0,ExtBa=12.80
24/08/2022,16:10:21,TEMP=27.8,BA=5.32,STAT.D=38.5,ExtBa=12.82
24/08/2022,16:12:20,TEMP=27.9,BA=5.32,STAT.A=38.0,ExtBa=12.79
24/08/2022,16:14:24,TEMP=27.8,BA=5.32,STAT.A=38.0,ExtBa=12.80